sensor_id;sensor_type;location;lat;lon;timestamp;pressure;altitude;pressure_sealevel;temperature;humidity
49473;BME280;67434;50.956;6.918;2023-10-19T00:02:28;99083.66;;;11.41;100.00
49473;BME280;67434;50.956;6.918;2023-10-19T00:05:14;99075.94;;;11.34;100.00
49473;BME280;67434;50.956;6.918;2023-10-19T00:08:05;99069.31;;;11.40;100.00
49473;BME280;67434;50.956;6.918;2023-10-19T00:11:00;99077.25;;;11.37;100.00
49473;BME280;67434;50.956;6.918;2023-10-19T00:13:53;99072.94;;;11.36;100.00
49473;BME280;67434;50.956;6.918;2023-10-19T00:16:43;99080.44;;;11.39;100.00
49473;BME280;67434;50.956;6.918;2023-10-19T00:19:42;99084.66;;;11.45;100.00
49473;BME280;67434;50.956;6.918;2023-10-19T00:22:43;99076.34;;;11.41;100.00
49473;BME280;67434;50.956;6.918;2023-10-19T00:25:29;99062.69;;;11.46;100.00
49473;BME280;67434;50.956;6.918;2023-10-19T00:28:15;99060.78;;;11.47;100.00
49473;BME280;67434;50.956;6.918;2023-10-19T00:31:02;99068.59;;;11.48;100.00
49473;BME280;67434;50.956;6.918;2023-10-19T00:33:54;99062.81;;;11.55;100.00
49473;BME280;67434;50.956;6.918;2023-10-19T00:36:40;99064.72;;;11.54;100.00
49473;BME280;67434;50.956;6.918;2023-10-19T00:39:25;99070.81;;;11.60;100.00
49473;BME280;67434;50.956;6.918;2023-10-19T00:42:12;99069.59;;;11.66;100.00
49473;BME280;67434;50.956;6.918;2023-10-19T00:45:01;99067.81;;;11.62;100.00
49473;BME280;67434;50.956;6.918;2023-10-19T00:47:50;99076.13;;;11.65;100.00
49473;BME280;67434;50.956;6.918;2023-10-19T00:50:41;99067.69;;;11.67;100.00
49473;BME280;67434;50.956;6.918;2023-10-19T00:53:28;99051.25;;;11.63;100.00
49473;BME280;67434;50.956;6.918;2023-10-19T00:56:15;99041.34;;;11.58;100.00
49473;BME280;67434;50.956;6.918;2023-10-19T00:59:05;99044.25;;;11.62;100.00
49473;BME280;67434;50.956;6.918;2023-10-19T01:02:01;99041.22;;;11.64;100.00
49473;BME280;67434;50.956;6.918;2023-10-19T01:05:03;99054.09;;;11.58;100.00
49473;BME280;67434;50.956;6.918;2023-10-19T01:07:52;99046.34;;;11.65;100.00
49473;BME280;67434;50.956;6.918;2023-10-19T01:10:47;99042.22;;;11.68;100.00
49473;BME280;67434;50.956;6.918;2023-10-19T01:13:38;99056.44;;;11.73;100.00
49473;BME280;67434;50.956;6.918;2023-10-19T01:16:24;99055.94;;;11.71;100.00
49473;BME280;67434;50.956;6.918;2023-10-19T01:19:10;99058.66;;;11.71;100.00
49473;BME280;67434;50.956;6.918;2023-10-19T01:21:56;99056.63;;;11.77;100.00
49473;BME280;67434;50.956;6.918;2023-10-19T01:24:48;99055.63;;;11.73;100.00
49473;BME280;67434;50.956;6.918;2023-10-19T01:27:35;99056.06;;;11.66;100.00
49473;BME280;67434;50.956;6.918;2023-10-19T01:30:21;99056.06;;;11.66;100.00
49473;BME280;67434;50.956;6.918;2023-10-19T01:33:06;99057.84;;;11.71;100.00
49473;BME280;67434;50.956;6.918;2023-10-19T01:35:58;99057.44;;;11.77;100.00
49473;BME280;67434;50.956;6.918;2023-10-19T01:39:02;99058.66;;;11.71;100.00
49473;BME280;67434;50.956;6.918;2023-10-19T01:41:54;99051.53;;;11.75;100.00
49473;BME280;67434;50.956;6.918;2023-10-19T01:44:40;99056.22;;;11.83;100.00
49473;BME280;67434;50.956;6.918;2023-10-19T01:47:25;99069.28;;;11.81;100.00
49473;BME280;67434;50.956;6.918;2023-10-19T01:50:13;99047.50;;;11.86;100.00
49473;BME280;67434;50.956;6.918;2023-10-19T01:53:05;99051.72;;;11.93;100.00
49473;BME280;67434;50.956;6.918;2023-10-19T01:56:12;99027.84;;;11.95;100.00
49473;BME280;67434;50.956;6.918;2023-10-19T01:59:03;99036.94;;;11.99;100.00
49473;BME280;67434;50.956;6.918;2023-10-19T02:01:49;99033.91;;;12.00;100.00
49473;BME280;67434;50.956;6.918;2023-10-19T02:04:36;99030.22;;;11.96;100.00
49473;BME280;67434;50.956;6.918;2023-10-19T02:07:25;99026.09;;;11.99;100.00
49473;BME280;67434;50.956;6.918;2023-10-19T02:10:11;99030.09;;;12.01;100.00
49473;BME280;67434;50.956;6.918;2023-10-19T02:12:56;99030.78;;;12.07;100.00
49473;BME280;67434;50.956;6.918;2023-10-19T02:15:43;99017.25;;;12.07;100.00
49473;BME280;67434;50.956;6.918;2023-10-19T02:18:29;99017.50;;;11.97;100.00
49473;BME280;67434;50.956;6.918;2023-10-19T02:21:15;99004.63;;;12.02;100.00
49473;BME280;67434;50.956;6.918;2023-10-19T02:24:07;99006.66;;;11.97;100.00
49473;BME280;67434;50.956;6.918;2023-10-19T02:26:55;99007.16;;;11.99;100.00
49473;BME280;67434;50.956;6.918;2023-10-19T02:29:41;99007.78;;;11.96;100.00
49473;BME280;67434;50.956;6.918;2023-10-19T02:32:27;99008.88;;;11.95;100.00
49473;BME280;67434;50.956;6.918;2023-10-19T02:35:14;99008.09;;;11.94;100.00
49473;BME280;67434;50.956;6.918;2023-10-19T02:38:00;99011.91;;;11.93;100.00
49473;BME280;67434;50.956;6.918;2023-10-19T02:40:45;99009.81;;;11.90;100.00
49473;BME280;67434;50.956;6.918;2023-10-19T02:43:32;99012.78;;;11.88;100.00
49473;BME280;67434;50.956;6.918;2023-10-19T02:46:20;99007.59;;;11.92;100.00
49473;BME280;67434;50.956;6.918;2023-10-19T02:49:07;99009.06;;;11.98;100.00
49473;BME280;67434;50.956;6.918;2023-10-19T02:51:57;99012.56;;;11.99;100.00
49473;BME280;67434;50.956;6.918;2023-10-19T02:54:48;99002.22;;;12.01;100.00
49473;BME280;67434;50.956;6.918;2023-10-19T02:57:37;99003.66;;;11.98;100.00
49473;BME280;67434;50.956;6.918;2023-10-19T03:00:23;98995.97;;;11.92;100.00
49473;BME280;67434;50.956;6.918;2023-10-19T03:03:17;98996.31;;;11.99;100.00
49473;BME280;67434;50.956;6.918;2023-10-19T03:06:03;98983.72;;;11.94;100.00
49473;BME280;67434;50.956;6.918;2023-10-19T03:08:50;98989.00;;;11.99;100.00
49473;BME280;67434;50.956;6.918;2023-10-19T03:11:43;98988.56;;;12.06;100.00
49473;BME280;67434;50.956;6.918;2023-10-19T03:14:30;98977.09;;;12.09;100.00
49473;BME280;67434;50.956;6.918;2023-10-19T03:17:18;98971.50;;;12.05;100.00
49473;BME280;67434;50.956;6.918;2023-10-19T03:20:04;98977.09;;;12.09;100.00
49473;BME280;67434;50.956;6.918;2023-10-19T03:22:52;98977.09;;;12.09;100.00
49473;BME280;67434;50.956;6.918;2023-10-19T03:25:37;98969.47;;;12.11;100.00
49473;BME280;67434;50.956;6.918;2023-10-19T03:28:55;98964.53;;;12.13;100.00
49473;BME280;67434;50.956;6.918;2023-10-19T03:31:41;98954.81;;;12.12;100.00
49473;BME280;67434;50.956;6.918;2023-10-19T03:34:31;98943.84;;;12.17;100.00
49473;BME280;67434;50.956;6.918;2023-10-19T03:37:29;98949.88;;;12.14;100.00
49473;BME280;67434;50.956;6.918;2023-10-19T03:40:17;98945.22;;;12.06;100.00
49473;BME280;67434;50.956;6.918;2023-10-19T03:43:12;98949.03;;;12.05;100.00
49473;BME280;67434;50.956;6.918;2023-10-19T03:46:07;98948.25;;;12.04;100.00
49473;BME280;67434;50.956;6.918;2023-10-19T03:49:09;98940.47;;;12.11;100.00
49473;BME280;67434;50.956;6.918;2023-10-19T03:51:59;98944.59;;;12.09;100.00
49473;BME280;67434;50.956;6.918;2023-10-19T03:54:47;98942.56;;;12.14;100.00
49473;BME280;67434;50.956;6.918;2023-10-19T03:57:33;98944.66;;;12.17;100.00
49473;BME280;67434;50.956;6.918;2023-10-19T04:00:20;98955.97;;;12.19;100.00
49473;BME280;67434;50.956;6.918;2023-10-19T04:03:10;98944.34;;;12.19;100.00
49473;BME280;67434;50.956;6.918;2023-10-19T04:05:57;98945.00;;;12.25;100.00
49473;BME280;67434;50.956;6.918;2023-10-19T04:08:46;98940.25;;;12.30;100.00
49473;BME280;67434;50.956;6.918;2023-10-19T04:11:36;98927.34;;;12.27;100.00
49473;BME280;67434;50.956;6.918;2023-10-19T04:14:33;98932.13;;;12.30;100.00
49473;BME280;67434;50.956;6.918;2023-10-19T04:17:19;98922.91;;;12.31;100.00
49473;BME280;67434;50.956;6.918;2023-10-19T04:20:06;98922.91;;;12.31;100.00
49473;BME280;67434;50.956;6.918;2023-10-19T04:23:04;98920.03;;;12.28;100.00
49473;BME280;67434;50.956;6.918;2023-10-19T04:25:56;98927.63;;;12.26;100.00
49473;BME280;67434;50.956;6.918;2023-10-19T04:28:41;98932.75;;;12.27;100.00
49473;BME280;67434;50.956;6.918;2023-10-19T04:31:30;98925.47;;;12.36;100.00
49473;BME280;67434;50.956;6.918;2023-10-19T04:34:18;98926.88;;;12.34;100.00
49473;BME280;67434;50.956;6.918;2023-10-19T04:37:06;98922.91;;;12.31;100.00
49473;BME280;67434;50.956;6.918;2023-10-19T04:39:52;98925.94;;;12.38;100.00
49473;BME280;67434;50.956;6.918;2023-10-19T04:42:38;98915.13;;;12.38;100.00
49473;BME280;67434;50.956;6.918;2023-10-19T04:45:24;98918.31;;;12.40;100.00
49473;BME280;67434;50.956;6.918;2023-10-19T04:48:10;98913.19;;;12.39;100.00
49473;BME280;67434;50.956;6.918;2023-10-19T04:50:55;98911.28;;;12.39;100.00
49473;BME280;67434;50.956;6.918;2023-10-19T04:53:42;98910.00;;;12.37;100.00
49473;BME280;67434;50.956;6.918;2023-10-19T04:56:28;98923.88;;;12.35;100.00
49473;BME280;67434;50.956;6.918;2023-10-19T04:59:13;98913.84;;;12.44;100.00
49473;BME280;67434;50.956;6.918;2023-10-19T05:01:59;98915.28;;;12.42;100.00
49473;BME280;67434;50.956;6.918;2023-10-19T05:04:47;98924.88;;;12.48;100.00
49473;BME280;67434;50.956;6.918;2023-10-19T05:07:34;98922.97;;;12.48;100.00
49473;BME280;67434;50.956;6.918;2023-10-19T05:10:19;98935.38;;;12.41;100.00
49473;BME280;67434;50.956;6.918;2023-10-19T05:13:05;98927.09;;;12.46;100.00
49473;BME280;67434;50.956;6.918;2023-10-19T05:15:51;98922.81;;;12.53;100.00
49473;BME280;67434;50.956;6.918;2023-10-19T05:18:38;98915.94;;;12.47;100.00
49473;BME280;67434;50.956;6.918;2023-10-19T05:21:24;98922.47;;;12.46;100.00
49473;BME280;67434;50.956;6.918;2023-10-19T05:24:10;98917.84;;;12.47;100.00
49473;BME280;67434;50.956;6.918;2023-10-19T05:26:56;98915.31;;;12.50;100.00
49473;BME280;67434;50.956;6.918;2023-10-19T05:29:41;98912.94;;;12.58;100.00
49473;BME280;67434;50.956;6.918;2023-10-19T05:32:27;98903.53;;;12.55;100.00
49473;BME280;67434;50.956;6.918;2023-10-19T05:35:15;98908.47;;;12.62;100.00
49473;BME280;67434;50.956;6.918;2023-10-19T05:38:08;98906.56;;;12.62;100.00
49473;BME280;67434;50.956;6.918;2023-10-19T05:40:56;98913.31;;;12.65;100.00
49473;BME280;67434;50.956;6.918;2023-10-19T05:43:42;98916.50;;;12.67;100.00
49473;BME280;67434;50.956;6.918;2023-10-19T05:46:28;98915.38;;;12.68;100.00
49473;BME280;67434;50.956;6.918;2023-10-19T05:49:14;98912.19;;;12.66;100.00
49473;BME280;67434;50.956;6.918;2023-10-19T05:52:02;98909.78;;;12.64;100.00
49473;BME280;67434;50.956;6.918;2023-10-19T05:54:48;98921.44;;;12.73;100.00
49473;BME280;67434;50.956;6.918;2023-10-19T05:57:36;98913.16;;;12.78;100.00
49473;BME280;67434;50.956;6.918;2023-10-19T06:00:24;98921.44;;;12.73;100.00
49473;BME280;67434;50.956;6.918;2023-10-19T06:03:11;98925.44;;;12.76;100.00
49473;BME280;67434;50.956;6.918;2023-10-19T06:05:57;98927.84;;;12.77;100.00
49473;BME280;67434;50.956;6.918;2023-10-19T06:08:43;98929.13;;;12.80;100.00
49473;BME280;67434;50.956;6.918;2023-10-19T06:11:29;98935.03;;;12.82;100.00
49473;BME280;67434;50.956;6.918;2023-10-19T06:14:17;98936.63;;;12.83;100.00
49473;BME280;67434;50.956;6.918;2023-10-19T06:17:03;98939.00;;;12.84;100.00
49473;BME280;67434;50.956;6.918;2023-10-19T06:19:49;98944.28;;;12.81;100.00
49473;BME280;67434;50.956;6.918;2023-10-19T06:22:35;98952.56;;;12.84;100.00
49473;BME280;67434;50.956;6.918;2023-10-19T06:25:22;98954.81;;;12.91;100.00
49473;BME280;67434;50.956;6.918;2023-10-19T06:28:08;98948.94;;;12.98;100.00
49473;BME280;67434;50.956;6.918;2023-10-19T06:30:54;98945.72;;;12.96;100.00
49473;BME280;67434;50.956;6.918;2023-10-19T06:33:40;98950.09;;;13.05;100.00
49473;BME280;67434;50.956;6.918;2023-10-19T06:36:28;98943.06;;;13.04;100.00
49473;BME280;67434;50.956;6.918;2023-10-19T06:39:14;98944.03;;;13.08;100.00
49473;BME280;67434;50.956;6.918;2023-10-19T06:42:25;98953.91;;;13.04;100.00
49473;BME280;67434;50.956;6.918;2023-10-19T06:45:21;98950.09;;;13.05;100.00
49473;BME280;67434;50.956;6.918;2023-10-19T06:48:07;98948.97;;;13.15;100.00
49473;BME280;67434;50.956;6.918;2023-10-19T06:50:56;98960.19;;;13.22;100.00
49473;BME280;67434;50.956;6.918;2023-10-19T06:53:41;98950.94;;;13.23;100.00
49473;BME280;67434;50.956;6.918;2023-10-19T06:56:27;98953.16;;;13.30;100.00
49473;BME280;67434;50.956;6.918;2023-10-19T06:59:13;98950.28;;;13.35;100.00
49473;BME280;67434;50.956;6.918;2023-10-19T07:01:58;98948.22;;;13.32;100.00
49473;BME280;67434;50.956;6.918;2023-10-19T07:04:46;98957.16;;;13.32;100.00
49473;BME280;67434;50.956;6.918;2023-10-19T07:07:32;98962.75;;;13.27;100.00
49473;BME280;67434;50.956;6.918;2023-10-19T07:10:19;98960.81;;;13.28;100.00
49473;BME280;67434;50.956;6.918;2023-10-19T07:13:06;98967.69;;;13.34;100.00
49473;BME280;67434;50.956;6.918;2023-10-19T07:15:51;98971.03;;;13.31;100.00
49473;BME280;67434;50.956;6.918;2023-10-19T07:18:37;98964.22;;;13.42;100.00
49473;BME280;67434;50.956;6.918;2023-10-19T07:21:24;98967.25;;;13.49;100.00
49473;BME280;67434;50.956;6.918;2023-10-19T07:24:10;98956.88;;;13.51;100.00
49473;BME280;67434;50.956;6.918;2023-10-19T07:26:56;98964.69;;;13.61;100.00
49473;BME280;67434;50.956;6.918;2023-10-19T07:29:53;98967.56;;;13.65;100.00
49473;BME280;67434;50.956;6.918;2023-10-19T07:32:38;98966.25;;;13.71;100.00
49473;BME280;67434;50.956;6.918;2023-10-19T07:35:25;98967.38;;;13.70;100.00
49473;BME280;67434;50.956;6.918;2023-10-19T07:38:14;98976.00;;;13.72;100.00
49473;BME280;67434;50.956;6.918;2023-10-19T07:41:00;98977.28;;;13.74;100.00
49473;BME280;67434;50.956;6.918;2023-10-19T07:43:46;98980.78;;;13.75;100.00
49473;BME280;67434;50.956;6.918;2023-10-19T07:46:32;98983.53;;;13.84;100.00
49473;BME280;67434;50.956;6.918;2023-10-19T07:49:18;98984.31;;;13.93;100.00
49473;BME280;67434;50.956;6.918;2023-10-19T07:52:04;98974.72;;;13.95;100.00
49473;BME280;67434;50.956;6.918;2023-10-19T07:54:52;98977.13;;;13.97;100.00
49473;BME280;67434;50.956;6.918;2023-10-19T07:57:38;98978.53;;;14.03;100.00
49473;BME280;67434;50.956;6.918;2023-10-19T08:00:26;98967.19;;;14.01;100.00
49473;BME280;67434;50.956;6.918;2023-10-19T08:03:12;98967.66;;;14.12;100.00
49473;BME280;67434;50.956;6.918;2023-10-19T08:05:59;98965.59;;;14.17;100.00
49473;BME280;67434;50.956;6.918;2023-10-19T08:08:44;98948.44;;;14.25;100.00
49473;BME280;67434;50.956;6.918;2023-10-19T08:11:30;98948.28;;;14.30;100.00
49473;BME280;67434;50.956;6.918;2023-10-19T08:14:16;98947.16;;;14.31;100.00
49473;BME280;67434;50.956;6.918;2023-10-19T08:17:02;98960.09;;;14.34;100.00
49473;BME280;67434;50.956;6.918;2023-10-19T08:19:48;98953.34;;;14.40;100.00
49473;BME280;67434;50.956;6.918;2023-10-19T08:22:37;98955.59;;;14.47;100.00
49473;BME280;67434;50.956;6.918;2023-10-19T08:25:24;98947.88;;;14.58;100.00
49473;BME280;67434;50.956;6.918;2023-10-19T08:28:12;98947.06;;;14.66;100.00
49473;BME280;67434;50.956;6.918;2023-10-19T08:30:58;98951.50;;;14.70;100.00
49473;BME280;67434;50.956;6.918;2023-10-19T08:33:47;98952.25;;;14.80;100.00
49473;BME280;67434;50.956;6.918;2023-10-19T08:36:33;98938.13;;;14.86;100.00
49473;BME280;67434;50.956;6.918;2023-10-19T08:39:19;98943.41;;;14.91;100.00
49473;BME280;67434;50.956;6.918;2023-10-19T08:42:05;98951.84;;;14.98;100.00
49473;BME280;67434;50.956;6.918;2023-10-19T08:48:01;98928.28;;;15.02;100.00
49473;BME280;67434;50.956;6.918;2023-10-19T08:50:47;98945.63;;;15.19;100.00
49473;BME280;67434;50.956;6.918;2023-10-19T08:53:38;98937.91;;;15.21;100.00
49473;BME280;67434;50.956;6.918;2023-10-19T08:56:27;98933.72;;;15.23;100.00
49473;BME280;67434;50.956;6.918;2023-10-19T08:59:14;98933.94;;;15.18;100.00
49473;BME280;67434;50.956;6.918;2023-10-19T09:02:03;98933.41;;;15.04;100.00
49473;BME280;67434;50.956;6.918;2023-10-19T09:04:48;98932.75;;;15.07;100.00
49473;BME280;67434;50.956;6.918;2023-10-19T09:07:37;98926.50;;;15.07;100.00
49473;BME280;67434;50.956;6.918;2023-10-19T09:10:28;98923.50;;;14.99;100.00
49473;BME280;67434;50.956;6.918;2023-10-19T09:13:17;98921.91;;;14.98;100.00
49473;BME280;67434;50.956;6.918;2023-10-19T09:16:08;98915.00;;;15.01;100.00
49473;BME280;67434;50.956;6.918;2023-10-19T09:18:55;98912.63;;;14.99;100.00
49473;BME280;67434;50.956;6.918;2023-10-19T09:21:56;98914.47;;;15.08;100.00
49473;BME280;67434;50.956;6.918;2023-10-19T09:25:32;98897.09;;;15.00;100.00
49473;BME280;67434;50.956;6.918;2023-10-19T09:28:25;98888.47;;;14.98;100.00
49473;BME280;67434;50.956;6.918;2023-10-19T09:31:11;98906.00;;;15.09;100.00
49473;BME280;67434;50.956;6.918;2023-10-19T09:33:57;98901.94;;;15.15;100.00
49473;BME280;67434;50.956;6.918;2023-10-19T09:36:44;98904.91;;;15.22;100.00
49473;BME280;67434;50.956;6.918;2023-10-19T09:39:30;98890.47;;;15.30;100.00
49473;BME280;67434;50.956;6.918;2023-10-19T09:42:21;98886.34;;;15.45;100.00
49473;BME280;67434;50.956;6.918;2023-10-19T09:45:08;98879.81;;;15.58;100.00
49473;BME280;67434;50.956;6.918;2023-10-19T09:47:55;98891.44;;;15.68;100.00
49473;BME280;67434;50.956;6.918;2023-10-19T09:50:44;98879.09;;;15.70;99.01
49473;BME280;67434;50.956;6.918;2023-10-19T09:53:30;98877.28;;;15.74;99.05
49473;BME280;67434;50.956;6.918;2023-10-19T09:56:32;98877.41;;;15.78;98.64
49473;BME280;67434;50.956;6.918;2023-10-19T09:59:29;98868.78;;;15.76;97.75
49473;BME280;67434;50.956;6.918;2023-10-19T10:02:19;98886.84;;;15.80;97.84
49473;BME280;67434;50.956;6.918;2023-10-19T10:08:31;98869.25;;;15.90;97.57
49473;BME280;67434;50.956;6.918;2023-10-19T10:14:24;98877.03;;;16.12;96.75
49473;BME280;67434;50.956;6.918;2023-10-19T10:17:17;98875.00;;;16.34;96.15
49473;BME280;67434;50.956;6.918;2023-10-19T10:20:29;98878.19;;;16.60;94.35
49473;BME280;67434;50.956;6.918;2023-10-19T10:23:23;98881.28;;;16.71;92.93
49473;BME280;67434;50.956;6.918;2023-10-19T10:26:24;98880.25;;;16.87;92.49
49473;BME280;67434;50.956;6.918;2023-10-19T10:29:15;98870.53;;;17.02;91.41
49473;BME280;67434;50.956;6.918;2023-10-19T10:32:05;98863.94;;;17.15;90.63
49473;BME280;67434;50.956;6.918;2023-10-19T10:34:53;98869.69;;;17.26;90.77
49473;BME280;67434;50.956;6.918;2023-10-19T10:37:39;98866.97;;;17.26;89.96
49473;BME280;67434;50.956;6.918;2023-10-19T10:40:42;98865.03;;;17.27;90.69
49473;BME280;67434;50.956;6.918;2023-10-19T10:43:28;98867.50;;;17.32;90.28
49473;BME280;67434;50.956;6.918;2023-10-19T10:46:14;98862.03;;;17.32;89.85
49473;BME280;67434;50.956;6.918;2023-10-19T10:48:59;98864.19;;;17.38;89.90
49473;BME280;67434;50.956;6.918;2023-10-19T10:51:47;98863.84;;;17.40;89.48
49473;BME280;67434;50.956;6.918;2023-10-19T10:54:33;98855.97;;;17.50;89.42
49473;BME280;67434;50.956;6.918;2023-10-19T10:57:19;98851.47;;;17.58;88.30
49473;BME280;67434;50.956;6.918;2023-10-19T11:00:10;98847.25;;;17.61;88.23
49473;BME280;67434;50.956;6.918;2023-10-19T11:03:06;98838.13;;;17.69;88.10
49473;BME280;67434;50.956;6.918;2023-10-19T11:06:02;98826.50;;;17.72;87.66
49473;BME280;67434;50.956;6.918;2023-10-19T11:08:53;98822.00;;;17.79;86.35
49473;BME280;67434;50.956;6.918;2023-10-19T11:11:39;98818.56;;;17.83;87.34
49473;BME280;67434;50.956;6.918;2023-10-19T11:14:24;98819.03;;;17.85;87.49
49473;BME280;67434;50.956;6.918;2023-10-19T11:17:13;98817.19;;;17.89;87.49
49473;BME280;67434;50.956;6.918;2023-10-19T11:20:00;98815.69;;;17.91;87.26
49473;BME280;67434;50.956;6.918;2023-10-19T11:22:50;98807.47;;;17.91;86.92
49473;BME280;67434;50.956;6.918;2023-10-19T11:25:36;98809.88;;;17.93;87.37
49473;BME280;67434;50.956;6.918;2023-10-19T11:28:23;98799.00;;;17.96;87.10
49473;BME280;67434;50.956;6.918;2023-10-19T11:31:23;98803.84;;;18.03;87.18
49473;BME280;67434;50.956;6.918;2023-10-19T11:37:20;98800.06;;;18.07;85.09
49473;BME280;67434;50.956;6.918;2023-10-19T11:40:11;98791.34;;;18.02;85.49
49473;BME280;67434;50.956;6.918;2023-10-19T11:42:57;98792.47;;;18.01;84.96
49473;BME280;67434;50.956;6.918;2023-10-19T11:45:44;98779.59;;;18.01;85.20
49473;BME280;67434;50.956;6.918;2023-10-19T11:48:35;98777.84;;;17.93;84.27
49473;BME280;67434;50.956;6.918;2023-10-19T11:51:21;98775.66;;;17.99;85.07
49473;BME280;67434;50.956;6.918;2023-10-19T11:54:07;98780.31;;;17.98;84.57
49473;BME280;67434;50.956;6.918;2023-10-19T11:56:52;98786.94;;;17.97;84.71
49473;BME280;67434;50.956;6.918;2023-10-19T11:59:40;98790.47;;;17.98;84.12
49473;BME280;67434;50.956;6.918;2023-10-19T12:02:26;98790.38;;;17.94;84.24
49473;BME280;67434;50.956;6.918;2023-10-19T12:05:12;98790.28;;;17.91;83.95
49473;BME280;67434;50.956;6.918;2023-10-19T12:07:57;98791.88;;;17.92;84.34
49473;BME280;67434;50.956;6.918;2023-10-19T12:10:43;98787.19;;;17.92;84.07
49473;BME280;67434;50.956;6.918;2023-10-19T12:13:30;98787.19;;;17.92;84.37
49473;BME280;67434;50.956;6.918;2023-10-19T12:16:16;98780.78;;;17.85;84.64
49473;BME280;67434;50.956;6.918;2023-10-19T12:19:02;98785.44;;;17.84;85.25
49473;BME280;67434;50.956;6.918;2023-10-19T12:21:49;98794.41;;;17.69;85.76
49473;BME280;67434;50.956;6.918;2023-10-19T12:24:35;98795.06;;;17.66;85.92
49473;BME280;67434;50.956;6.918;2023-10-19T12:27:21;98787.78;;;17.70;85.37
49473;BME280;67434;50.956;6.918;2023-10-19T12:30:10;98792.25;;;17.62;86.13
49473;BME280;67434;50.956;6.918;2023-10-19T12:33:05;98792.03;;;17.67;85.36
49473;BME280;67434;50.956;6.918;2023-10-19T12:35:56;98797.50;;;17.67;85.37
49473;BME280;67434;50.956;6.918;2023-10-19T12:38:42;98791.22;;;17.67;85.20
49473;BME280;67434;50.956;6.918;2023-10-19T12:41:28;98787.66;;;17.66;85.43
49473;BME280;67434;50.956;6.918;2023-10-19T12:44:14;98782.56;;;17.65;85.29
49473;BME280;67434;50.956;6.918;2023-10-19T12:47:00;98783.81;;;17.67;85.55
49473;BME280;67434;50.956;6.918;2023-10-19T12:49:46;98792.69;;;17.64;85.72
49473;BME280;67434;50.956;6.918;2023-10-19T12:52:32;98793.50;;;17.65;85.68
49473;BME280;67434;50.956;6.918;2023-10-19T12:55:21;98807.22;;;17.53;86.31
49473;BME280;67434;50.956;6.918;2023-10-19T12:58:07;98796.03;;;17.58;86.77
49473;BME280;67434;50.956;6.918;2023-10-19T13:00:53;98808.13;;;17.57;87.72
49473;BME280;67434;50.956;6.918;2023-10-19T13:03:40;98815.34;;;17.65;88.63
49473;BME280;67434;50.956;6.918;2023-10-19T13:06:25;98815.34;;;17.65;89.53
49473;BME280;67434;50.956;6.918;2023-10-19T13:09:17;98803.03;;;17.71;90.30
49473;BME280;67434;50.956;6.918;2023-10-19T13:12:16;98808.91;;;17.85;90.62
49473;BME280;67434;50.956;6.918;2023-10-19T13:15:01;98802.00;;;17.91;90.50
49473;BME280;67434;50.956;6.918;2023-10-19T13:17:48;98794.97;;;17.90;90.75
49473;BME280;67434;50.956;6.918;2023-10-19T13:20:34;98801.03;;;17.84;91.83
49473;BME280;67434;50.956;6.918;2023-10-19T13:23:20;98798.47;;;17.75;92.22
49473;BME280;67434;50.956;6.918;2023-10-19T13:26:09;98791.22;;;17.67;92.50
49473;BME280;67434;50.956;6.918;2023-10-19T13:29:01;98795.88;;;17.66;94.34
49473;BME280;67434;50.956;6.918;2023-10-19T13:31:47;98789.88;;;17.61;93.90
49473;BME280;67434;50.956;6.918;2023-10-19T13:34:36;98786.34;;;17.60;94.63
49473;BME280;67434;50.956;6.918;2023-10-19T13:37:24;98784.66;;;17.56;94.69
49473;BME280;67434;50.956;6.918;2023-10-19T13:40:10;98772.16;;;17.55;95.39
49473;BME280;67434;50.956;6.918;2023-10-19T13:42:57;98775.50;;;17.48;96.53
49473;BME280;67434;50.956;6.918;2023-10-19T13:45:44;98768.09;;;17.48;95.97
49473;BME280;67434;50.956;6.918;2023-10-19T13:48:30;98757.75;;;17.42;97.28
49473;BME280;67434;50.956;6.918;2023-10-19T13:51:17;98749.81;;;17.37;97.73
49473;BME280;67434;50.956;6.918;2023-10-19T13:54:05;98742.94;;;17.27;98.67
49473;BME280;67434;50.956;6.918;2023-10-19T13:56:54;98746.47;;;17.28;98.80
49473;BME280;67434;50.956;6.918;2023-10-19T13:59:43;98742.94;;;17.27;98.89
49473;BME280;67434;50.956;6.918;2023-10-19T14:02:29;98736.69;;;17.27;99.23
49473;BME280;67434;50.956;6.918;2023-10-19T14:05:15;98740.81;;;17.21;99.64
49473;BME280;67434;50.956;6.918;2023-10-19T14:08:00;98727.50;;;17.19;100.00
49473;BME280;67434;50.956;6.918;2023-10-19T14:10:46;98722.06;;;17.19;100.00
49473;BME280;67434;50.956;6.918;2023-10-19T14:13:33;98727.25;;;17.24;100.00
49473;BME280;67434;50.956;6.918;2023-10-19T14:16:18;98724.19;;;17.26;100.00
49473;BME280;67434;50.956;6.918;2023-10-19T14:19:04;98718.72;;;17.26;100.00
49473;BME280;67434;50.956;6.918;2023-10-19T14:21:50;98719.50;;;17.26;100.00
49473;BME280;67434;50.956;6.918;2023-10-19T14:24:36;98710.69;;;17.33;100.00
49473;BME280;67434;50.956;6.918;2023-10-19T14:27:22;98706.66;;;17.27;100.00
49473;BME280;67434;50.956;6.918;2023-10-19T14:30:09;98714.22;;;17.33;100.00
49473;BME280;67434;50.956;6.918;2023-10-19T14:33:04;98700.41;;;17.26;100.00
49473;BME280;67434;50.956;6.918;2023-10-19T14:35:56;98687.19;;;17.12;100.00
49473;BME280;67434;50.956;6.918;2023-10-19T14:38:41;98675.03;;;17.10;100.00
49473;BME280;67434;50.956;6.918;2023-10-19T14:41:28;98668.72;;;17.09;100.00
49473;BME280;67434;50.956;6.918;2023-10-19T14:44:15;98658.88;;;17.05;100.00
49473;BME280;67434;50.956;6.918;2023-10-19T14:47:10;98649.19;;;17.07;100.00
49473;BME280;67434;50.956;6.918;2023-10-19T14:49:56;98638.13;;;17.16;100.00
49473;BME280;67434;50.956;6.918;2023-10-19T14:52:51;98638.56;;;17.18;100.00
49473;BME280;67434;50.956;6.918;2023-10-19T14:55:59;98634.69;;;17.19;100.00
49473;BME280;67434;50.956;6.918;2023-10-19T14:58:46;98645.59;;;17.19;100.00